Chronik & Geschichte

Boeing Stearman am Flugplatz Konstanz

Mit seiner 107-jährigen Geschichte ist Konstanz der älteste Verkehrslandeplatz Deutschlands. Lesen Sie unsere Festschrift zum 100-jährigen Platzjubiläum oder entdecken Sie die ausführliche Flugplatzchronik auf der Website der Initiative PRO Flugplatz Konstanz.

Live am Platz

Die Bilder unserer Webcams werden alle 5 Minuten aktualisiert.

Sonnenaufgang:

04:19 UTC / 06:19 Lokal

Sonnenuntergang:

18:24 UTC / 20:24 Lokal

METAR (22.04.2019 16:20 UTC):

EDNY 221620Z 13004KT CAVOK 23/02 Q1002
VFR

TAF (22.04.2019 11:00 UTC):

TAF EDNY 221100Z 2212/2312 04010KT CAVOK PROB30 TEMPO 2212/2215 19005KT BECMG 2220/2222 VRB03KT TEMPO 2309/2312 24005KT

Alle Angaben unverbindlich und ohne Gewähr. Zeiten genähert.

Für den Verkehrslandeplatz Konstanz werden keine offiziellen Wetterinformationen ausgegeben. Daher werden zur Orientierung Daten des nahegelegenen Flughafens Friedrichshafen dargestellt.

Flugwetterdaten zur Verfügung gestellt von wippich.aero.